Terminal Aerodrome Forecast
Issued by NWS

Home | Current Version | Previous Version | Text Only | Print | Product List | Glossary On
Versions: 1 2 3 4 5 6 7 8 9 10 11 12 13 14 15 16 17 18
000
FTUS42 KMLB 071120
TAFLEE
TAF
KLEE 071120Z 0712/0812 00000KT P6SM FEW060
     FM071600 VRB04KT P6SM FEW030 SCT250
     FM072000 16005KT P6SM VCTS SCT040CB BKN060
      TEMPO 0720/0722 3SM TSRA BKN030CB
     FM080200 15003KT P6SM SCT050 SCT150 BKN250=

USA.gov is the U.S. government's official web portal to all federal, state and local government web resources and services.